createdAt,value
2023-04-26T05:30:34.308Z,99.90
2023-04-26T05:37:56.468Z,99.90
2023-04-26T05:42:51.501Z,99.90
2023-04-26T05:47:47.624Z,99.90
2023-04-26T05:50:15.030Z,99.90
2023-04-26T05:52:42.226Z,99.90
2023-04-26T05:55:10.311Z,99.90
2023-04-26T05:57:40.440Z,99.90
2023-04-26T06:00:11.434Z,99.90
2023-04-26T06:02:38.824Z,99.90
2023-04-26T06:05:06.901Z,99.90
2023-04-26T06:07:37.320Z,99.90
2023-04-26T06:10:05.235Z,99.90
2023-04-26T06:15:01.370Z,99.90
2023-04-26T06:17:29.719Z,99.90
2023-04-26T06:19:57.135Z,99.90
2023-04-26T06:22:24.830Z,99.90
2023-04-26T06:24:52.186Z,99.90
2023-04-26T06:27:19.381Z,99.90
2023-04-26T06:29:47.875Z,99.90
2023-04-26T06:32:17.416Z,99.90
2023-04-26T06:34:45.719Z,99.90
2023-04-26T06:37:13.338Z,98.70
2023-04-26T06:39:40.646Z,99.80
2023-04-26T06:42:08.413Z,96.50
2023-04-26T06:44:36.057Z,94.20
2023-04-26T06:47:09.771Z,94.10
2023-04-26T06:49:37.678Z,91.30
2023-04-26T06:52:08.243Z,90.80
2023-04-26T06:54:45.936Z,87.40
2023-04-26T06:57:21.553Z,87.60
2023-04-26T06:59:49.039Z,87.70
2023-04-26T07:02:16.407Z,86.80
2023-04-26T07:04:44.612Z,82.50
2023-04-26T07:07:13.750Z,80.70
2023-04-26T07:09:41.218Z,81.90
2023-04-26T07:12:08.483Z,79.30
2023-04-26T07:14:40.579Z,73.50
2023-04-26T07:17:07.946Z,69.60
2023-04-26T07:19:35.762Z,69.90
2023-04-26T07:22:07.639Z,68.20
2023-04-26T07:24:35.358Z,75.60
2023-04-26T07:27:03.487Z,79.70
2023-04-26T07:29:30.724Z,77.80
2023-04-26T07:31:58.958Z,75.40
2023-04-26T07:34:27.915Z,78.40
2023-04-26T07:36:56.469Z,73.30
2023-04-26T07:39:25.222Z,73.30
2023-04-26T07:41:53.200Z,74.20
2023-04-26T07:44:21.228Z,75.50
2023-04-26T07:46:48.708Z,75.90
2023-04-26T07:49:16.400Z,78.30
2023-04-26T07:51:51.887Z,71.50
2023-04-26T07:54:22.441Z,78.20
2023-04-26T07:59:22.666Z,77.00
2023-04-26T08:04:35.106Z,67.80
2023-04-26T08:07:04.760Z,70.60
2023-04-26T08:12:01.989Z,69.60
2023-04-26T08:14:32.043Z,71.90
2023-04-26T08:17:02.944Z,76.70
2023-04-26T08:19:32.141Z,82.80
2023-04-26T08:22:02.329Z,88.10
2023-04-26T08:24:30.124Z,86.20
2023-04-26T08:29:28.689Z,90.30
2023-04-26T08:31:58.456Z,83.90
2023-04-26T08:34:27.654Z,92.10
2023-04-26T08:41:58.878Z,91.60
2023-04-26T08:47:21.742Z,90.10
2023-04-26T08:50:05.539Z,90.40
2023-04-26T08:52:33.315Z,82.50
2023-04-26T08:55:01.110Z,91.30
2023-04-26T08:57:33.898Z,91.10
2023-04-26T09:00:05.737Z,91.60
2023-04-26T09:02:34.579Z,87.70
2023-04-26T09:05:02.452Z,93.60
2023-04-26T09:07:42.430Z,93.00
2023-04-26T09:10:11.637Z,94.00
2023-04-26T09:12:40.405Z,93.40
2023-04-26T09:17:41.646Z,95.50
2023-04-26T09:20:30.105Z,90.90
2023-04-26T09:23:07.547Z,86.20
2023-04-26T09:28:04.242Z,84.40
2023-04-26T09:30:39.657Z,84.80
2023-04-26T09:33:09.659Z,86.40
2023-04-26T09:35:42.154Z,83.70
2023-04-26T09:38:15.813Z,91.70
2023-04-26T09:43:17.019Z,83.40
2023-04-26T09:48:23.350Z,88.30
2023-04-26T09:50:53.584Z,82.90
2023-04-26T09:53:37.468Z,91.70
2023-04-26T09:56:12.144Z,84.00
2023-04-26T09:58:58.151Z,84.70
2023-04-26T10:01:26.973Z,90.60
2023-04-26T10:03:57.110Z,86.00
2023-04-26T10:06:25.280Z,85.50
2023-04-26T10:08:52.879Z,83.30
2023-04-26T10:11:22.174Z,90.40
2023-04-26T10:13:52.110Z,84.00
2023-04-26T10:16:21.388Z,84.50
2023-04-26T10:18:49.574Z,85.80
2023-04-26T10:21:22.866Z,87.70
2023-04-26T10:26:49.070Z,87.80
2023-04-26T10:29:16.954Z,89.40
2023-04-26T10:32:10.925Z,86.20
2023-04-26T10:34:38.330Z,92.00
2023-04-26T10:37:23.607Z,84.20
2023-04-26T10:39:51.958Z,90.80
2023-04-26T10:42:24.018Z,82.40
2023-04-26T10:44:59.802Z,83.20
2023-04-26T10:47:28.498Z,90.90
2023-04-26T10:50:07.581Z,83.60
2023-04-26T10:52:43.419Z,89.40
2023-04-26T10:57:52.966Z,92.90
2023-04-26T11:00:32.349Z,87.00
2023-04-26T11:03:04.806Z,84.80
2023-04-26T11:05:54.583Z,85.10
2023-04-26T11:08:30.113Z,85.90
2023-04-26T11:10:57.567Z,84.20
2023-04-26T11:13:24.967Z,80.80
2023-04-26T11:16:00.248Z,84.40
2023-04-26T11:18:28.459Z,82.70
2023-04-26T11:20:56.229Z,82.00
2023-04-26T11:23:24.341Z,81.60
2023-04-26T11:25:51.768Z,80.60
2023-04-26T11:28:19.800Z,82.80
2023-04-26T11:30:48.728Z,81.20
2023-04-26T11:33:24.034Z,91.20
2023-04-26T11:35:55.750Z,83.90
2023-04-26T11:38:27.065Z,84.20
2023-04-26T11:41:02.310Z,84.80
2023-04-26T11:43:34.178Z,84.10
2023-04-26T11:46:02.009Z,82.70
2023-04-26T11:48:30.398Z,84.30
2023-04-26T11:51:01.247Z,91.10
2023-04-26T11:53:42.263Z,92.50
2023-04-26T11:56:20.485Z,90.50
2023-04-26T11:58:49.768Z,91.00
2023-04-26T12:01:24.733Z,90.30
2023-04-26T12:03:54.180Z,90.60
2023-04-26T12:06:41.924Z,81.20
2023-04-26T12:09:13.695Z,90.60
2023-04-26T12:11:41.387Z,91.20
2023-04-26T12:14:10.157Z,91.00
2023-04-26T12:19:09.767Z,83.10
2023-04-26T12:21:55.629Z,92.70
2023-04-26T12:24:34.167Z,93.10
2023-04-26T12:27:02.966Z,93.00
2023-04-26T12:29:32.082Z,88.80
2023-04-26T12:32:00.334Z,92.90
2023-04-26T12:34:27.933Z,93.10
2023-04-26T12:39:23.320Z,85.30
2023-04-26T12:41:50.514Z,87.00
2023-04-26T12:46:49.268Z,84.00
2023-04-26T12:49:17.538Z,83.00
2023-04-26T12:54:22.099Z,84.70
2023-04-26T13:01:47.925Z,92.60
2023-04-26T13:09:13.164Z,93.30
2023-04-26T13:11:42.063Z,92.60
2023-04-26T13:14:09.633Z,90.60
2023-04-26T13:16:38.864Z,86.50
2023-04-26T13:24:01.255Z,91.30
2023-04-26T13:26:28.415Z,93.20
2023-04-26T13:28:56.214Z,85.80
2023-04-26T13:38:48.879Z,92.20
2023-04-26T13:41:16.344Z,92.30
2023-04-26T13:46:11.102Z,82.80
2023-04-26T13:48:38.340Z,90.60
2023-04-26T13:51:06.988Z,82.10
2023-04-26T13:53:34.697Z,82.50
2023-04-26T14:00:56.999Z,82.30
2023-04-26T14:13:15.956Z,88.20
2023-04-26T14:18:11.413Z,93.50
2023-04-26T14:25:33.549Z,93.70
2023-04-26T14:28:01.745Z,87.70
2023-04-26T14:30:29.500Z,94.20
2023-04-26T14:32:56.677Z,93.80
2023-04-26T14:40:18.996Z,94.30
2023-04-26T14:42:46.357Z,94.60
2023-04-26T14:45:13.688Z,94.60
2023-04-26T14:47:40.974Z,94.90
2023-04-26T14:50:09.965Z,94.70
2023-04-26T14:52:37.334Z,94.30
2023-04-26T14:55:05.567Z,96.00
2023-04-26T15:00:07.304Z,96.30
2023-04-26T15:02:34.612Z,95.00
2023-04-26T15:22:19.153Z,96.50
2023-04-26T15:27:13.805Z,95.60
2023-04-26T15:29:40.972Z,95.00
2023-04-26T15:34:40.795Z,95.00
2023-04-26T15:37:08.037Z,96.00
2023-04-26T15:39:35.274Z,96.00
2023-04-26T15:42:02.556Z,96.90
2023-04-26T15:46:57.881Z,96.70
2023-04-26T15:49:25.732Z,96.30
2023-04-26T15:54:21.648Z,96.10
2023-04-26T15:59:16.556Z,97.80
